Airfield :
LOGIN :

Register | Disclaimer

   EN    FR    IT 

 










Legend :    VFR   Marginal VFR   IFR   Intensive IFR   Very Intensive IFR
Visi :
Ceiling :
>= 8 km
>= 3000ft
5 to 8 km
1000 to 3000 ft
1500m to 5 km
500 to 1000 ft
800 to 1500m
200 to 500 ft
< 800m
< 200 ft
Symbols :   Thunderstorms  Fog  Heavy snow  Heavy precipitations  Wind > 20 kt
SIGMETs :     Misc.  Thunderstorms  Icing  Turbulence  Mountain Waves  Volcanic Ashes







- Airport Elevation : 160 ft
- IATA code : LRT
- Download approach charts


LFRH - Lorient Lann Bihoue

CURRENT METAR :
  • 231800Z AUTO 06006KT CAVOK 15/06 Q1027 NOSIG

EXPIRED METARs :
  • 231730Z AUTO 06004KT CAVOK 15/07 Q1027 NOSIG
  • 231700Z AUTO 06007KT 030V090 CAVOK 16/06 Q1027 NOSIG
  • 231630Z AUTO VRB02KT 9999 BKN049 BKN056 17/07 Q1027 NOSIG
  • 231600Z AUTO 19004KT 150V230 9999 BKN049 17/06 Q1027 BECMG 07010KT
  • 231530Z AUTO 17005KT 050V210 CAVOK 17/06 Q1028 NOSIG

TAF TAF LFRH
Valid from the 23 at 18:00 until the 24 at 18:00 UTC


231700Z 2318/2418 05010KT CAVOK
TEMPO 2400/2406 3000 BR
PROB40
TEMPO 2406/2408 BKN004
BECMG 2410/2412 BKN020 BKN030
BECMG 2416/2418 CAVOK
No reported NOTAMs for that airfield.



MET'MAP, your aeronautical weather chart ! - Copyright ORBIFLY December 2007 - Disclaimer

ORBIFLY MET'MAP TEAM :

Programming & Development : Alexandra Zaïnal
Concept & Development : Baudouin d'Aumeries
Co-Development & Prog : Marc-Olivier Méhu
Technical & hardware support : Manuel Goepfert

Contact : metmap@orbifly.com




SOURCES & CREDITS :

   NOAA